Time;durP1;ratioP1;P1;durP2;ratioP2;P2;SDS_P1;SDS_P2;PMS_P1;PMS_P2;Temp;Humidity;BMP_temperature;BMP_pressure;BME280_temperature;BME280_humidity;BME280_pressure;Samples;Min_cycle;Max_cycle;Signal;HPM_P1;HPM_P2
2021/11/06 00:02:20;;;;;;;16.20;6.85;;;;;;;11.20;85.18;96974.47;5093303;28;20505;-64
2021/11/06 00:04:46;;;;;;;15.50;6.75;;;;;;;11.24;84.89;96968.19;5093334;28;20382;-62
2021/11/06 00:07:11;;;;;;;10.88;6.30;;;;;;;11.27;85.25;96967.22;5093243;28;20031;-62
2021/11/06 00:09:37;;;;;;;15.75;6.57;;;;;;;11.27;85.22;96973.34;5093311;28;20058;-63
2021/11/06 00:12:03;;;;;;;14.05;6.18;;;;;;;11.30;84.76;96970.63;5093096;28;20020;-60
2021/11/06 00:14:29;;;;;;;13.05;6.38;;;;;;;11.28;84.66;96967.19;5093222;28;20020;-64
2021/11/06 00:16:55;;;;;;;9.85;5.55;;;;;;;11.23;84.74;96964.72;5092609;28;20476;-61
2021/11/06 00:19:21;;;;;;;12.10;6.95;;;;;;;11.24;84.38;96979.53;5093119;28;20028;-63
2021/11/06 00:21:46;;;;;;;16.02;7.13;;;;;;;11.27;84.90;96982.94;5093160;28;20020;-65
2021/11/06 00:24:12;;;;;;;12.98;7.60;;;;;;;11.30;85.32;96977.59;5092963;28;20031;-64
2021/11/06 00:26:38;;;;;;;17.50;7.53;;;;;;;11.37;85.63;96984.34;5093055;28;20031;-62
2021/11/06 00:29:05;;;;;;;14.30;7.55;;;;;;;11.43;85.57;96985.88;5093100;28;20020;-62
2021/11/06 00:31:31;;;;;;;13.50;7.35;;;;;;;11.36;84.93;96986.13;5092888;28;20116;-64
2021/11/06 00:33:56;;;;;;;17.52;7.93;;;;;;;11.33;84.90;96981.00;5092917;28;20028;-60
2021/11/06 00:36:24;;;;;;;12.82;6.38;;;;;;;11.32;84.10;96978.41;5092922;28;20035;-65
2021/11/06 00:38:50;;;;;;;15.40;6.28;;;;;;;11.32;84.12;96978.41;5092938;28;20035;-65
2021/11/06 00:41:16;;;;;;;12.73;5.40;;;;;;;11.27;83.35;96973.34;5092951;28;20029;-60
2021/11/06 00:43:42;;;;;;;12.85;5.45;;;;;;;11.21;83.75;96978.78;5092928;28;20385;-63
2021/11/06 00:46:07;;;;;;;20.48;5.57;;;;;;;11.18;83.48;96977.13;5092861;28;20069;-65
2021/11/06 00:48:33;;;;;;;11.52;5.05;;;;;;;11.10;83.56;96976.50;5092907;28;20371;-63
2021/11/06 00:50:58;;;;;;;17.02;6.75;;;;;;;11.04;83.11;96972.34;5092811;28;20024;-62
2021/11/06 00:53:24;;;;;;;23.70;11.68;;;;;;;10.98;83.26;96964.69;5092951;28;20099;-64
2021/11/06 00:55:50;;;;;;;33.10;24.10;;;;;;;10.93;83.79;96970.06;5092752;28;20024;-62
2021/11/06 00:58:15;;;;;;;9.32;6.60;;;;;;;10.87;84.07;96968.50;5092781;28;20024;-62
2021/11/06 01:00:41;;;;;;;18.85;6.80;;;;;;;10.85;84.58;96980.81;5092514;28;20052;-60
2021/11/06 01:03:07;;;;;;;14.05;5.50;;;;;;;10.84;84.66;96971.22;5092666;28;20028;-62
2021/11/06 01:05:33;;;;;;;15.40;5.47;;;;;;;10.83;85.44;96973.88;5091432;28;20119;-62
2021/11/06 01:07:58;;;;;;;15.07;5.88;;;;;;;10.90;84.98;96977.16;5092637;28;20035;-62
2021/11/06 01:10:24;;;;;;;14.77;6.13;;;;;;;10.84;84.65;96978.22;5092669;28;20016;-64
2021/11/06 01:12:50;;;;;;;10.70;6.32;;;;;;;10.86;83.95;96974.66;5092475;28;20028;-64
2021/11/06 01:15:16;;;;;;;21.30;6.03;;;;;;;10.87;83.92;96981.59;5092783;28;20031;-60
2021/11/06 01:17:43;;;;;;;21.33;4.75;;;;;;;10.82;83.70;96980.03;5092685;28;20020;-60
2021/11/06 01:20:09;;;;;;;13.43;6.70;;;;;;;10.77;83.80;96979.34;5092546;28;20039;-63
2021/11/06 01:22:35;;;;;;;17.15;5.82;;;;;;;10.76;83.83;96983.69;5092489;28;20466;-64
2021/11/06 01:25:01;;;;;;;19.17;5.97;;;;;;;10.78;83.58;96986.28;5092517;28;20013;-63
2021/11/06 01:27:26;;;;;;;13.25;5.53;;;;;;;10.79;83.42;96985.34;5092528;28;20024;-64
2021/11/06 01:29:52;;;;;;;16.25;5.70;;;;;;;10.76;83.82;96985.44;5095022;28;20023;-65
2021/11/06 01:32:18;;;;;;;13.20;5.95;;;;;;;10.74;83.99;96980.28;5095940;28;20422;-60
2021/11/06 01:34:43;;;;;;;11.48;5.72;;;;;;;10.70;84.05;96978.66;5096000;28;20066;-65
2021/11/06 01:37:09;;;;;;;17.40;6.78;;;;;;;10.70;84.50;96979.53;5096029;28;20024;-63
2021/11/06 01:39:35;;;;;;;13.35;6.10;;;;;;;10.71;84.56;96980.38;5095932;28;20052;-63
2021/11/06 01:42:01;;;;;;;11.00;6.13;;;;;;;10.74;84.57;96981.13;5095911;28;20031;-60
2021/11/06 01:44:27;;;;;;;12.75;6.38;;;;;;;10.78;84.04;96981.03;5095794;28;20385;-61
2021/11/06 01:46:53;;;;;;;10.20;5.13;;;;;;;10.74;83.62;96988.13;5094439;28;20378;-60
2021/11/06 01:49:22;;;;;;;10.68;5.78;;;;;;;10.71;83.42;96991.69;5095878;28;20032;-62
2021/11/06 01:51:52;;;;;;;12.07;6.25;;;;;;;10.73;83.27;96989.91;5095680;28;20106;-62
2021/11/06 01:54:22;;;;;;;16.75;6.50;;;;;;;10.72;83.43;96995.19;5095874;28;20031;-61
2021/11/06 01:56:48;;;;;;;11.68;6.55;;;;;;;10.77;84.08;96987.19;5095730;28;20106;-60
2021/11/06 01:59:14;;;;;;;19.70;6.93;;;;;;;10.80;83.67;96994.91;5095578;28;20099;-63
2021/11/06 02:01:39;;;;;;;14.45;6.70;;;;;;;10.84;84.16;96997.38;5095408;28;20079;-63
2021/11/06 02:04:05;;;;;;;15.38;6.00;;;;;;;10.82;83.78;96990.50;5095505;28;20020;-60
2021/11/06 02:06:30;;;;;;;13.27;6.05;;;;;;;10.76;83.08;96993.31;5095473;28;20103;-62
2021/11/06 02:08:56;;;;;;;18.35;6.50;;;;;;;10.71;83.24;96986.47;5095338;28;20024;-60
2021/11/06 02:11:22;;;;;;;17.20;6.82;;;;;;;10.69;83.52;96993.50;5095187;28;20035;-61
2021/11/06 02:13:47;;;;;;;19.90;7.38;;;;;;;10.72;83.69;96996.00;5095449;28;20019;-63
2021/11/06 02:16:13;;;;;;;17.73;7.35;;;;;;;10.70;83.83;97002.22;5095347;28;20538;-61
2021/11/06 02:18:38;;;;;;;10.73;6.63;;;;;;;10.65;84.13;97004.13;5095196;28;20081;-65
2021/11/06 02:21:07;;;;;;;20.02;6.88;;;;;;;10.57;83.17;97005.19;5095036;28;20145;-62
2021/11/06 02:23:38;;;;;;;12.27;5.85;;;;;;;10.51;83.24;97001.91;5095109;28;20065;-60
2021/11/06 02:26:07;;;;;;;15.80;5.60;;;;;;;10.45;84.12;97000.31;5095081;28;20099;-64
2021/11/06 02:28:32;;;;;;;21.65;9.68;;;;;;;10.45;83.95;97006.41;5094965;28;20390;-61
2021/11/06 02:30:58;;;;;;;15.02;8.55;;;;;;;10.39;83.79;97009.22;5094936;28;20031;-61
2021/11/06 02:33:23;;;;;;;19.10;8.88;;;;;;;10.41;84.45;97017.84;5094973;28;20077;-61
2021/11/06 02:35:49;;;;;;;10.43;5.85;;;;;;;10.40;84.39;97008.31;5094890;28;20031;-63
2021/11/06 02:38:15;;;;;;;20.27;7.80;;;;;;;10.38;84.67;97007.47;5094783;28;20153;-61
2021/11/06 02:40:40;;;;;;;20.42;7.45;;;;;;;10.39;85.90;97010.97;5094340;28;20408;-61
2021/11/06 02:43:06;;;;;;;18.20;7.40;;;;;;;10.48;86.05;97014.19;5094711;28;20026;-65
2021/11/06 02:45:32;;;;;;;18.10;7.28;;;;;;;10.57;85.60;97006.97;5094634;28;20122;-60
2021/11/06 02:47:58;;;;;;;17.02;7.18;;;;;;;10.56;85.17;97013.94;5094630;28;20073;-60
2021/11/06 02:50:23;;;;;;;17.80;6.70;;;;;;;10.53;85.50;97008.81;5095036;28;20382;-62
2021/11/06 02:52:49;;;;;;;16.85;6.28;;;;;;;10.54;85.87;97015.75;5094416;28;20032;-61
2021/11/06 02:55:14;;;;;;;16.15;6.35;;;;;;;10.51;85.77;97012.38;5094365;28;20027;-64
2021/11/06 02:57:40;;;;;;;12.57;6.35;;;;;;;10.49;85.88;97015.91;5094422;28;20031;-63
2021/11/06 03:00:10;;;;;;;15.48;6.40;;;;;;;10.53;85.43;97016.66;5094210;28;20040;-64
2021/11/06 03:02:36;;;;;;;21.67;5.85;;;;;;;10.53;84.71;97014.03;5094594;28;20476;-65
2021/11/06 03:05:06;;;;;;;15.90;5.15;;;;;;;10.54;84.30;97030.59;5094361;28;20016;-63
2021/11/06 03:07:33;;;;;;;17.15;5.07;;;;;;;10.46;84.00;97029.09;5094202;28;20028;-61
2021/11/06 03:09:58;;;;;;;20.33;5.97;;;;;;;10.38;84.13;97028.41;5094234;28;20483;-65
2021/11/06 03:12:25;;;;;;;19.23;6.00;;;;;;;10.35;84.96;97029.34;5094120;28;20170;-62
2021/11/06 03:14:51;;;;;;;20.05;6.20;;;;;;;10.35;85.32;97025.88;5094029;28;20099;-65
2021/11/06 03:17:17;;;;;;;18.20;5.85;;;;;;;10.37;85.32;97029.31;5093952;28;20020;-61
2021/11/06 03:19:43;;;;;;;11.18;5.65;;;;;;;10.38;84.87;97025.78;5093933;28;20478;-63
2021/11/06 03:22:10;;;;;;;20.25;5.22;;;;;;;10.38;85.02;97024.94;5093986;28;20046;-62
2021/11/06 03:24:36;;;;;;;16.83;5.55;;;;;;;10.31;85.46;97021.63;5093883;28;20031;-63
2021/11/06 03:27:03;;;;;;;11.68;5.18;;;;;;;10.27;85.31;97023.50;5093865;28;20023;-65
2021/11/06 03:29:28;;;;;;;14.45;5.15;;;;;;;10.38;84.54;97030.19;5093804;28;20023;-59
2021/11/06 03:31:54;;;;;;;16.38;4.57;;;;;;;10.41;84.65;97033.53;5093797;28;20032;-63
2021/11/06 03:34:19;;;;;;;11.57;5.18;;;;;;;10.47;83.71;97028.16;5093776;28;20027;-64
2021/11/06 03:36:45;;;;;;;12.43;5.15;;;;;;;10.42;83.52;97037.88;5093796;28;20032;-63
2021/11/06 03:39:11;;;;;;;19.85;5.10;;;;;;;10.40;83.30;97042.31;5093660;28;20020;-65
2021/11/06 03:41:36;;;;;;;16.23;5.57;;;;;;;10.39;83.44;97044.97;5093585;28;20070;-60
2021/11/06 03:44:03;;;;;;;15.05;5.40;;;;;;;10.29;83.25;97047.00;5093676;28;20012;-62
2021/11/06 03:46:28;;;;;;;20.48;5.65;;;;;;;10.29;84.00;97050.44;5093613;28;20024;-63
2021/11/06 03:48:54;;;;;;;21.67;6.43;;;;;;;10.28;83.73;97045.25;5093515;28;20377;-64
2021/11/06 03:51:20;;;;;;;23.58;6.05;;;;;;;10.29;83.76;97053.06;5092581;28;20036;-65
2021/11/06 03:53:46;;;;;;;42.20;30.55;;;;;;;10.21;83.96;97061.13;5093360;28;20016;-62
2021/11/06 03:56:12;;;;;;;19.73;10.98;;;;;;;10.23;83.48;97069.78;5093305;28;20038;-60
2021/11/06 03:58:37;;;;;;;23.83;7.57;;;;;;;10.15;83.72;97066.53;5093385;28;20016;-64
2021/11/06 04:01:03;;;;;;;21.80;8.40;;;;;;;10.18;83.40;97060.38;5093201;28;20048;-62
2021/11/06 04:03:29;;;;;;;18.10;6.38;;;;;;;10.14;83.74;97066.59;5093377;28;20024;-60
2021/11/06 04:05:55;;;;;;;23.55;6.15;;;;;;;10.13;84.74;97070.06;5093297;28;20446;-61
2021/11/06 04:08:20;;;;;;;20.23;5.78;;;;;;;10.08;84.81;97060.63;5093167;28;20027;-62
2021/11/06 04:10:46;;;;;;;20.92;6.13;;;;;;;10.13;84.66;97070.06;5093213;28;20024;-63
2021/11/06 04:13:13;;;;;;;22.55;6.07;;;;;;;10.10;84.72;97066.66;5093342;28;20107;-65
2021/11/06 04:15:40;;;;;;;13.57;5.97;;;;;;;10.11;84.67;97055.31;5093213;28;20036;-65
2021/11/06 04:18:06;;;;;;;13.90;5.57;;;;;;;10.06;84.27;97054.56;5093221;28;20069;-60
2021/11/06 04:20:32;;;;;;;21.02;5.50;;;;;;;9.98;84.50;97064.38;5093219;28;20424;-63
2021/11/06 04:22:57;;;;;;;27.08;6.30;;;;;;;9.99;84.49;97058.25;5093126;28;20077;-65
2021/11/06 04:25:23;;;;;;;16.63;5.60;;;;;;;10.10;84.43;97055.34;5093188;28;20080;-64
2021/11/06 04:27:48;;;;;;;20.55;5.55;;;;;;;10.08;83.94;97054.53;5093172;28;20028;-64
2021/11/06 04:30:14;;;;;;;14.88;5.55;;;;;;;10.14;83.84;97058.75;5093026;28;20024;-65
2021/11/06 04:32:40;;;;;;;27.20;5.78;;;;;;;10.18;83.70;97055.97;5093083;28;20023;-64
2021/11/06 04:35:06;;;;;;;21.38;6.05;;;;;;;10.21;83.43;97052.44;5093096;28;20157;-66
2021/11/06 04:37:31;;;;;;;18.58;6.57;;;;;;;10.14;83.58;97063.97;5092972;28;20095;-67
2021/11/06 04:39:57;;;;;;;12.88;5.53;;;;;;;10.16;83.76;97062.16;5092990;28;20619;-63
2021/11/06 04:42:24;;;;;;;17.98;5.78;;;;;;;10.16;83.63;97056.94;5092856;28;20024;-63
2021/11/06 04:44:50;;;;;;;15.68;6.13;;;;;;;10.22;84.00;97075.06;5092837;28;20157;-66
2021/11/06 04:47:15;;;;;;;18.38;6.05;;;;;;;10.21;83.51;97070.75;5092897;28;20020;-64
2021/11/06 04:49:41;;;;;;;14.95;6.25;;;;;;;10.28;83.19;97071.41;5092895;28;20177;-64
2021/11/06 04:52:06;;;;;;;25.38;5.93;;;;;;;10.29;83.49;97068.75;5092862;28;20032;-62
2021/11/06 04:54:32;;;;;;;15.65;5.95;;;;;;;10.34;83.29;97081.69;5092745;28;20028;-63
2021/11/06 04:56:57;;;;;;;35.30;15.82;;;;;;;10.33;82.66;97093.91;5092862;28;20016;-64
2021/11/06 04:59:23;;;;;;;22.77;9.48;;;;;;;10.38;82.84;97103.41;5092934;28;20156;-65
2021/11/06 05:01:49;;;;;;;14.27;6.72;;;;;;;10.39;82.81;97105.97;5052510;28;20044;-64
2021/11/06 05:04:14;;;;;;;21.08;9.88;;;;;;;10.44;82.69;97116.28;5055803;28;20029;-65
2021/11/06 05:06:40;;;;;;;25.17;8.35;;;;;;;10.38;82.69;97109.47;5056267;28;20018;-63
2021/11/06 05:09:06;;;;;;;15.32;5.68;;;;;;;10.43;82.70;97111.97;5056329;28;20028;-62
2021/11/06 05:11:31;;;;;;;19.42;5.68;;;;;;;10.45;81.90;97104.94;5056133;28;20430;-61
2021/11/06 05:13:59;;;;;;;22.35;6.03;;;;;;;10.52;81.86;97108.25;5056142;28;20032;-65
2021/11/06 05:16:25;;;;;;;21.10;6.65;;;;;;;10.47;82.29;97113.63;5056110;28;20040;-64
2021/11/06 05:18:53;;;;;;;19.63;6.00;;;;;;;10.52;82.07;97114.34;5056037;28;20107;-62
2021/11/06 05:21:21;;;;;;;18.25;6.05;;;;;;;10.54;82.39;97114.31;5055993;28;20033;-63
2021/11/06 05:23:47;;;;;;;13.43;5.82;;;;;;;10.55;82.02;97121.25;5056073;28;20029;-62
2021/11/06 05:26:12;;;;;;;20.85;6.07;;;;;;;10.67;82.52;97118.28;5055984;28;20017;-64
2021/11/06 05:28:38;;;;;;;24.55;6.20;;;;;;;10.78;82.44;97128.47;5056062;28;20470;-62
2021/11/06 05:31:03;;;;;;;12.82;5.45;;;;;;;10.93;81.69;97132.34;5055803;28;20475;-61
2021/11/06 05:33:29;;;;;;;20.55;5.22;;;;;;;11.09;81.41;97139.75;5055761;28;20035;-62
2021/11/06 05:35:54;;;;;;;34.65;7.20;;;;;;;11.24;81.51;97146.28;5055836;28;20031;-65
2021/11/06 05:38:20;;;;;;;21.95;5.40;;;;;;;11.35;81.19;97140.72;5055980;28;20059;-63
2021/11/06 05:40:45;;;;;;;16.42;5.50;;;;;;;11.62;80.29;97145.97;5055744;28;20109;-65
2021/11/06 05:43:11;;;;;;;20.48;5.13;;;;;;;11.99;78.92;97143.88;5055696;28;20091;-66
2021/11/06 05:45:37;;;;;;;19.95;5.35;;;;;;;12.39;77.03;97141.66;5055563;28;20523;-64
2021/11/06 05:48:03;;;;;;;13.50;4.75;;;;;;;12.74;75.85;97142.13;5055526;28;20391;-64
2021/11/06 05:50:29;;;;;;;15.98;4.35;;;;;;;13.27;74.68;97141.91;5055439;28;20021;-62
2021/11/06 05:52:54;;;;;;;22.05;5.32;;;;;;;13.85;73.26;97132.59;5055522;28;20036;-62
2021/11/06 05:55:20;;;;;;;11.85;4.50;;;;;;;14.54;70.87;97150.72;5055305;28;20029;-66
2021/11/06 05:57:45;;;;;;;22.98;7.50;;;;;;;15.27;68.01;97147.44;5055249;28;20021;-61
2021/11/06 06:00:15;;;;;;;48.30;16.42;;;;;;;15.98;65.99;97158.16;5068357;28;20055;-64
2021/11/06 06:02:41;;;;;;;28.73;9.80;;;;;;;16.61;64.25;97166.41;5095660;28;20039;-65
2021/11/06 06:05:08;;;;;;;21.85;6.18;;;;;;;17.32;62.96;97168.00;5095784;28;20477;-64
2021/11/06 06:07:34;;;;;;;16.73;5.70;;;;;;;18.02;61.16;97167.56;5095363;28;20445;-61
2021/11/06 06:10:00;;;;;;;26.48;5.95;;;;;;;18.74;58.51;97186.34;5095459;28;20026;-63
2021/11/06 06:12:26;;;;;;;14.77;4.93;;;;;;;19.40;57.22;97196.47;5095203;28;20024;-64
2021/11/06 06:14:51;;;;;;;13.32;4.32;;;;;;;20.08;54.47;97199.25;5094356;28;20385;-62
2021/11/06 06:17:17;;;;;;;14.57;3.35;;;;;;;20.72;52.24;97210.91;5095308;28;20080;-61
2021/11/06 06:19:43;;;;;;;12.75;4.05;;;;;;;21.30;50.31;97213.13;5095158;28;20026;-64
2021/11/06 06:22:09;;;;;;;18.02;3.85;;;;;;;21.65;48.83;97206.22;5095080;28;20020;-62
2021/11/06 06:24:34;;;;;;;21.85;4.65;;;;;;;21.99;48.74;97202.06;5095157;28;20027;-61
2021/11/06 06:27:00;;;;;;;18.10;4.65;;;;;;;22.41;48.73;97205.13;5094954;28;20028;-62
2021/11/06 06:29:26;;;;;;;12.57;3.90;;;;;;;23.04;48.47;97200.41;5095136;28;20012;-63
2021/11/06 06:31:51;;;;;;;14.68;3.90;;;;;;;23.60;47.14;97206.69;5094955;28;20474;-63
2021/11/06 06:34:17;;;;;;;18.80;4.72;;;;;;;24.05;45.85;97210.22;5094857;28;20493;-65
2021/11/06 06:36:43;;;;;;;14.15;3.80;;;;;;;24.63;44.48;97214.34;5094864;28;20027;-62
2021/11/06 06:39:09;;;;;;;17.15;4.05;;;;;;;25.28;43.04;97221.28;5094869;28;20658;-62
2021/11/06 06:41:35;;;;;;;13.43;4.35;;;;;;;25.72;43.37;97226.41;5094829;28;20439;-63
2021/11/06 06:44:00;;;;;;;14.32;4.30;;;;;;;26.29;42.04;97232.09;5094676;28;20028;-62
2021/11/06 06:46:27;;;;;;;13.57;3.78;;;;;;;26.70;41.25;97237.31;5094640;28;20402;-62
2021/11/06 06:48:53;;;;;;;16.60;4.28;;;;;;;27.17;40.04;97236.50;5094524;28;20027;-65
2021/11/06 06:51:19;;;;;;;13.15;4.10;;;;;;;27.54;40.01;97242.03;5094591;28;20382;-60
2021/11/06 06:53:44;;;;;;;15.13;6.82;;;;;;;27.85;38.02;97241.72;5094551;28;20016;-65
2021/11/06 06:56:10;;;;;;;20.23;6.00;;;;;;;28.21;37.02;97227.47;5094397;28;20024;-62
2021/11/06 06:58:35;;;;;;;17.60;4.75;;;;;;;28.63;36.86;97223.31;5094388;28;20061;-61
2021/11/06 07:01:01;;;;;;;16.60;5.05;;;;;;;28.90;36.82;97232.25;5094156;28;20044;-65
2021/11/06 07:03:27;;;;;;;12.45;4.20;;;;;;;28.99;36.04;97236.69;5094312;28;20024;-65
2021/11/06 07:05:52;;;;;;;19.90;4.53;;;;;;;28.87;35.24;97235.25;5094526;28;20028;-64
2021/11/06 07:08:20;;;;;;;13.43;3.90;;;;;;;29.38;35.08;97238.06;5094268;28;20039;-65
2021/11/06 07:10:46;;;;;;;16.85;3.78;;;;;;;29.66;32.94;97239.75;5094084;28;20031;-64
2021/11/06 07:13:16;;;;;;;12.57;4.78;;;;;;;29.87;32.89;97242.00;5094123;28;20381;-62
2021/11/06 07:15:44;;;;;;;14.00;4.55;;;;;;;30.33;33.64;97245.28;5094239;28;20381;-64
2021/11/06 07:18:09;;;;;;;19.52;3.80;;;;;;;30.72;32.31;97247.34;5094052;28;20466;-62
2021/11/06 07:20:35;;;;;;;15.93;4.40;;;;;;;31.23;31.57;97246.25;5092707;28;20039;-64
2021/11/06 07:23:01;;;;;;;16.38;4.93;;;;;;;31.48;33.16;97250.78;5093963;28;20024;-66
2021/11/06 07:25:26;;;;;;;21.15;6.53;;;;;;;31.20;30.74;97253.84;5093782;28;20035;-66
2021/11/06 07:27:52;;;;;;;18.52;5.43;;;;;;;31.35;32.03;97260.28;5094060;28;20027;-63
2021/11/06 07:30:18;;;;;;;20.60;4.97;;;;;;;31.77;32.45;97260.94;5093874;28;20024;-61
2021/11/06 07:32:43;;;;;;;17.17;4.13;;;;;;;32.05;30.29;97262.34;5093741;28;20031;-63
2021/11/06 07:35:09;;;;;;;12.95;5.07;;;;;;;32.19;29.71;97266.16;5093678;28;20035;-63
2021/11/06 07:37:37;;;;;;;19.90;4.68;;;;;;;31.57;30.21;97263.22;5093764;28;20016;-61
2021/11/06 07:40:07;;;;;;;11.57;4.32;;;;;;;31.76;30.37;97261.94;5093676;28;20028;-63
2021/11/06 07:42:35;;;;;;;15.02;4.68;;;;;;;31.99;29.59;97263.91;5093851;28;20432;-65
2021/11/06 07:45:01;;;;;;;15.43;4.97;;;;;;;32.10;29.76;97265.34;5093855;28;20099;-63
2021/11/06 07:47:26;;;;;;;14.32;4.78;;;;;;;32.36;29.17;97261.44;5093569;28;20048;-62
2021/11/06 07:49:52;;;;;;;20.52;4.57;;;;;;;32.62;28.75;97262.13;5093561;28;20437;-62
2021/11/06 07:52:18;;;;;;;22.13;4.32;;;;;;;32.53;28.87;97255.94;5093447;28;20466;-60
2021/11/06 07:54:44;;;;;;;10.82;3.88;;;;;;;32.10;30.71;97262.66;5093578;28;20462;-61
2021/11/06 07:57:09;;;;;;;15.27;4.47;;;;;;;31.62;29.68;97268.09;5093444;28;20469;-64
2021/11/06 07:59:35;;;;;;;18.70;4.38;;;;;;;30.74;32.15;97269.59;5093146;28;20067;-62
2021/11/06 08:02:01;;;;;;;17.25;4.68;;;;;;;30.08;31.45;97264.97;5093411;28;20024;-62
2021/11/06 08:04:27;;;;;;;16.67;5.10;;;;;;;29.84;32.87;97271.13;5093358;28;20099;-62
2021/11/06 08:06:53;;;;;;;12.50;4.72;;;;;;;28.89;33.46;97265.53;5093543;28;20031;-62
2021/11/06 08:09:19;;;;;;;51.47;26.60;;;;;;;28.26;32.61;97270.88;5092126;28;20028;-64
2021/11/06 08:11:44;;;;;;;23.75;6.32;;;;;;;27.70;32.24;97273.63;5093434;28;20028;-61
2021/11/06 08:14:10;;;;;;;22.10;6.10;;;;;;;27.28;32.12;97266.84;5093199;28;20389;-65
2021/11/06 08:16:38;;;;;;;17.73;5.45;;;;;;;26.59;32.85;97260.63;5093170;28;20077;-62
2021/11/06 08:19:06;;;;;;;18.63;6.10;;;;;;;25.86;33.78;97275.22;5093154;28;20051;-63
2021/11/06 08:21:32;;;;;;;12.88;5.28;;;;;;;25.23;35.23;97264.53;5093134;28;20078;-63
2021/11/06 08:23:58;;;;;;;22.42;5.57;;;;;;;24.88;36.30;97260.41;5093216;28;20052;-67
2021/11/06 08:26:24;;;;;;;23.05;5.38;;;;;;;24.74;36.56;97261.53;5093088;28;20020;-62
2021/11/06 08:28:49;;;;;;;21.83;5.55;;;;;;;24.50;36.45;97264.47;5093100;28;20043;-66
2021/11/06 08:31:16;;;;;;;17.48;4.85;;;;;;;24.36;36.37;97258.47;5092971;28;20027;-63
2021/11/06 08:33:42;;;;;;;24.30;5.65;;;;;;;24.40;37.58;97267.91;5093001;28;20027;-62
2021/11/06 08:36:07;;;;;;;22.15;5.75;;;;;;;24.37;37.42;97260.16;5092985;28;20024;-61
2021/11/06 08:38:33;;;;;;;19.08;5.32;;;;;;;24.30;37.83;97266.97;5095546;28;20039;-62
2021/11/06 08:41:03;;;;;;;13.85;4.80;;;;;;;24.21;37.31;97258.78;5097171;28;20381;-64
2021/11/06 08:43:31;;;;;;;13.27;4.77;;;;;;;24.22;37.53;97260.47;5097035;28;20025;-62
2021/11/06 08:45:59;;;;;;;20.15;5.55;;;;;;;24.11;37.33;97263.97;5097068;28;20032;-64
2021/11/06 08:48:26;;;;;;;17.83;5.43;;;;;;;24.29;38.32;97262.63;5097133;28;20032;-64
2021/11/06 08:50:52;;;;;;;21.95;5.15;;;;;;;24.46;37.67;97261.19;5096800;28;20043;-64
2021/11/06 08:53:18;;;;;;;23.45;5.43;;;;;;;24.53;36.20;97254.34;5096894;28;20397;-61
2021/11/06 08:55:44;;;;;;;15.90;5.20;;;;;;;24.60;36.23;97260.06;5096807;28;20016;-59
2021/11/06 08:58:10;;;;;;;16.13;5.32;;;;;;;24.65;36.30;97254.31;5096781;28;20028;-62
2021/11/06 09:00:44;;;;;;;24.48;5.05;;;;;;;24.55;35.37;97260.44;5096340;28;20036;-61
2021/11/06 09:03:13;;;;;;;18.77;5.82;;;;;;;24.64;36.82;97253.47;5096637;28;20032;-62
2021/11/06 09:05:41;;;;;;;21.02;5.10;;;;;;;24.68;36.92;97260.25;5096699;28;20552;-64
2021/11/06 09:08:07;;;;;;;14.95;5.57;;;;;;;24.64;35.55;97255.28;5096685;28;20370;-62
2021/11/06 09:10:35;;;;;;;13.98;4.60;;;;;;;24.67;36.35;97253.19;5096693;28;20043;-64
2021/11/06 09:13:00;;;;;;;22.33;5.22;;;;;;;24.73;35.68;97255.34;5096451;28;20020;-62
2021/11/06 09:15:26;;;;;;;15.93;4.65;;;;;;;24.78;35.83;97259.47;5096399;28;20020;-64
2021/11/06 09:17:53;;;;;;;18.13;5.22;;;;;;;24.78;36.02;97259.47;5096404;28;20035;-64
2021/11/06 09:20:19;;;;;;;24.88;6.00;;;;;;;24.88;35.66;97260.41;5096344;28;20107;-61
2021/11/06 09:22:46;;;;;;;21.20;5.18;;;;;;;24.90;35.65;97265.63;5096449;28;20028;-61
2021/11/06 09:25:13;;;;;;;16.10;4.85;;;;;;;24.95;36.31;97260.75;5096256;28;20032;-67
2021/11/06 09:27:39;;;;;;;18.65;5.38;;;;;;;25.04;36.24;97262.59;5096263;28;20028;-64
2021/11/06 09:30:07;;;;;;;16.70;5.07;;;;;;;25.10;35.45;97267.44;5096181;28;20085;-63
2021/11/06 09:32:34;;;;;;;15.35;4.93;;;;;;;24.99;35.77;97262.16;5096125;28;20028;-67
2021/11/06 09:35:00;;;;;;;20.83;5.05;;;;;;;24.95;36.05;97263.41;5096259;28;20024;-66
2021/11/06 09:37:26;;;;;;;23.00;5.10;;;;;;;24.98;35.70;97265.78;5096099;28;20359;-66
2021/11/06 09:39:54;;;;;;;16.25;5.18;;;;;;;25.07;36.82;97256.16;5095924;28;20032;-61
2021/11/06 09:42:20;;;;;;;17.20;5.07;;;;;;;25.09;35.91;97259.53;5095913;28;20027;-64
2021/11/06 09:44:46;;;;;;;14.45;4.95;;;;;;;25.15;35.34;97269.72;5095941;28;20020;-64
2021/11/06 09:47:12;;;;;;;19.92;4.97;;;;;;;25.27;35.09;97267.78;5095940;28;20020;-63
2021/11/06 09:49:40;;;;;;;15.80;5.13;;;;;;;25.24;35.05;97265.38;5094470;28;20020;-62
2021/11/06 09:52:07;;;;;;;15.35;4.88;;;;;;;25.28;34.96;97261.44;5095777;28;20095;-65
2021/11/06 09:54:34;;;;;;;16.30;4.97;;;;;;;25.26;34.96;97258.06;5095745;28;20458;-62
2021/11/06 09:57:00;;;;;;;17.60;5.30;;;;;;;25.36;35.52;97260.78;5095819;28;20377;-64
2021/11/06 09:59:26;;;;;;;15.45;5.00;;;;;;;25.45;34.86;97259.97;5095398;28;20032;-62
2021/11/06 10:01:52;;;;;;;21.70;4.72;;;;;;;25.46;34.38;97255.44;5095648;28;20047;-64
2021/11/06 10:04:17;;;;;;;20.70;5.07;;;;;;;25.48;35.83;97259.72;5095330;28;20371;-66
2021/11/06 10:06:47;;;;;;;24.38;4.97;;;;;;;25.40;35.31;97262.19;5095513;28;20031;-62
2021/11/06 10:09:15;;;;;;;12.73;5.22;;;;;;;25.41;35.60;97260.38;5095483;28;20026;-64
2021/11/06 10:11:49;;;;;;;17.65;5.18;;;;;;;25.37;35.56;97265.16;5095456;28;20031;-63
2021/11/06 10:14:20;;;;;;;24.73;6.15;;;;;;;25.17;35.51;97261.53;5095366;28;20028;-63
2021/11/06 10:16:55;;;;;;;19.58;5.50;;;;;;;25.08;36.18;97268.53;5095449;28;20017;-62
2021/11/06 10:19:36;;;;;;;22.30;5.28;;;;;;;25.03;36.41;97266.25;5095348;28;20020;-64
2021/11/06 10:22:09;;;;;;;16.20;5.18;;;;;;;24.90;36.79;97266.47;5095390;28;20031;-64
2021/11/06 10:24:45;;;;;;;20.90;5.20;;;;;;;24.67;37.27;97261.22;5095308;28;20040;-61
2021/11/06 10:27:17;;;;;;;14.63;5.28;;;;;;;24.74;38.23;97266.88;5095237;28;20382;-63
2021/11/06 10:29:59;;;;;;;14.30;5.55;;;;;;;24.66;37.66;97272.91;5095039;28;20019;-62
2021/11/06 10:32:25;;;;;;;23.58;6.28;;;;;;;24.58;37.93;97267.34;5094923;28;20050;-61
2021/11/06 10:34:53;;;;;;;14.57;5.45;;;;;;;24.51;39.05;97274.19;5094867;28;20470;-66
2021/11/06 10:37:19;;;;;;;21.05;5.50;;;;;;;24.54;37.10;97276.59;5094925;28;20031;-66
2021/11/06 10:40:00;;;;;;;13.25;5.18;;;;;;;24.50;37.62;97272.50;5094880;28;20016;-64
2021/11/06 10:42:26;;;;;;;14.15;6.93;;;;;;;24.37;37.88;97268.16;5094832;28;20051;-64
2021/11/06 10:45:13;;;;;;;15.35;5.57;;;;;;;24.41;38.75;97258.91;5094849;28;20020;-65
2021/11/06 10:48:03;;;;;;;12.70;5.40;;;;;;;24.41;38.69;97261.59;5094809;28;20032;-64
2021/11/06 10:51:03;;;;;;;10.05;4.85;;;;;;;24.47;38.67;97261.06;5094749;28;20035;-64
2021/11/06 10:53:45;;;;;;;22.17;6.28;;;;;;;24.44;39.01;97252.47;5094630;28;20040;-62
2021/11/06 10:56:14;;;;;;;15.63;5.45;;;;;;;24.41;38.75;97255.41;5094645;28;20377;-60
2021/11/06 10:58:44;;;;;;;16.70;5.45;;;;;;;24.42;38.29;97254.41;5094596;28;20016;-66
2021/11/06 11:01:17;;;;;;;19.98;5.47;;;;;;;24.44;37.99;97255.97;5094043;28;20065;-67
2021/11/06 11:03:45;;;;;;;18.00;5.78;;;;;;;24.46;37.90;97248.69;5094434;28;20032;-60
2021/11/06 11:06:18;;;;;;;20.88;5.85;;;;;;;24.51;37.79;97258.16;5094350;28;20484;-62
2021/11/06 11:08:51;;;;;;;18.48;4.72;;;;;;;24.55;38.13;97262.25;5094431;28;20035;-59
2021/11/06 11:11:21;;;;;;;19.70;5.38;;;;;;;24.54;37.82;97247.19;5093039;28;20020;-60
2021/11/06 11:13:55;;;;;;;26.15;5.35;;;;;;;24.61;37.98;97248.38;5094370;28;20040;-64
2021/11/06 11:16:23;;;;;;;14.52;5.63;;;;;;;24.69;38.15;97256.59;5094194;28;20036;-65
2021/11/06 11:18:51;;;;;;;22.05;5.20;;;;;;;24.78;38.52;97254.13;5094045;28;20089;-63
2021/11/06 11:21:26;;;;;;;15.18;4.50;;;;;;;24.87;37.90;97250.69;5094016;28;20055;-65
2021/11/06 11:23:54;;;;;;;18.50;4.43;;;;;;;24.96;36.60;97255.22;5094265;28;20145;-63